Aérodrome :
LOGIN :

S'inscrire | Disclaimer

   EN    FR    IT 

 










Légende :    VFR   VFR Marginal   IFR   IFR Intensif   IFR Très Intensif
Visi : 
Plafond : 
>= 8 km
>= 3000ft
5 à 8 km
1000 à 3000 ft
1500m à 5 km
500 à 1000 ft
800 à 1500m
200 à 500 ft
< 800m
< 200 ft
Symboles :   Orages  Brouillard  Fortes neiges  Fortes précipitations  Vent > 20 kt
SIGMETs :   Divers  Orages  Givrage  Turbulence  Onde Orograph.  Cendres Volcan.






- Altitude de l'aérodrome : 755 ft
- Code IATA : KSC


LZKZ - Kosice

DERNIER METAR :
  • 260200Z 21005KT CAVOK 06/04 Q0997

METARs EXPIRÉS :
  • 260130Z 24010KT CAVOK 07/04 Q0998
  • 260100Z 22010KT CAVOK 07/04 Q0998
  • 260030Z 22009KT CAVOK 07/04 Q0998
  • 260000Z 21009KT CAVOK 07/04 Q0998
  • 252330Z 21007KT CAVOK 07/03 Q0999

TAF TAF LZKZ
Valide du 26 à 00h jusqu'au 27 à 00h UTC


252300Z 2600/2700 22008KT CAVOK
TEMPO 2602/2604 5000 -RA BR SCT008 BKN035 OVC080
BECMG 2606/2608 25013KT
TEMPO 2610/2616 01009KT 9999 -SHRA BKN030



MET'MAP, la Météo Aéronautique d'un coup d'oeil ! - Copyright ORBIFLY Décembre 2007 - Disclaimer

ORBIFLY MET'MAP TEAM :

Programmation & Développement : Alexandra Zaïnal
Sur une idée originale de : Baudouin d'Aumeries
Assistance à la programmation : Marc-Olivier Méhu
Soutien technique & logistique : Manuel Goepfert

Contact : metmap@orbifly.com




SOURCES & CREDITS :

   NOAA